createdAt,value
2023-04-15T00:02:00.946Z,6.60
2023-04-15T00:04:32.081Z,6.57
2023-04-15T00:07:00.723Z,6.55
2023-04-15T00:09:28.729Z,6.54
2023-04-15T00:11:56.484Z,6.55
2023-04-15T00:14:24.180Z,6.54
2023-04-15T00:16:56.323Z,6.52
2023-04-15T00:19:25.492Z,6.63
2023-04-15T00:21:53.330Z,6.67
2023-04-15T00:24:21.394Z,6.71
2023-04-15T00:26:49.565Z,6.81
2023-04-15T00:29:17.468Z,6.91
2023-04-15T00:31:46.215Z,7.00
2023-04-15T00:34:14.124Z,7.08
2023-04-15T00:36:46.499Z,7.15
2023-04-15T00:39:14.560Z,7.16
2023-04-15T00:41:45.751Z,7.20
2023-04-15T00:44:14.674Z,7.23
2023-04-15T00:46:43.633Z,7.23
2023-04-15T00:49:13.276Z,7.23
2023-04-15T00:51:42.751Z,7.23
2023-04-15T00:54:10.769Z,7.22
2023-04-15T00:56:40.165Z,7.19
2023-04-15T00:59:08.679Z,7.18
2023-04-15T01:01:38.587Z,7.16
2023-04-15T01:04:07.263Z,7.16
2023-04-15T01:06:35.187Z,7.12
2023-04-15T01:09:03.615Z,7.13
2023-04-15T01:11:34.390Z,7.09
2023-04-15T01:14:02.988Z,7.06
2023-04-15T01:16:31.807Z,7.03
2023-04-15T01:19:00.050Z,6.96
2023-04-15T01:21:28.406Z,6.92
2023-04-15T01:23:58.233Z,6.84
2023-04-15T01:26:26.951Z,6.81
2023-04-15T01:28:55.002Z,6.77
2023-04-15T01:31:22.999Z,6.75
2023-04-15T01:33:50.793Z,6.71
2023-04-15T01:36:18.714Z,6.71
2023-04-15T01:38:46.503Z,6.64
2023-04-15T01:41:15.783Z,6.58
2023-04-15T01:43:43.615Z,6.54
2023-04-15T01:46:11.645Z,6.48
2023-04-15T01:48:39.456Z,6.48
2023-04-15T01:51:07.431Z,6.44
2023-04-15T01:53:35.415Z,6.40
2023-04-15T01:56:04.406Z,6.36
2023-04-15T01:58:32.832Z,6.34
2023-04-15T02:01:04.440Z,6.30
2023-04-15T02:03:33.241Z,6.31
2023-04-15T02:06:01.387Z,6.30
2023-04-15T02:08:30.579Z,6.26
2023-04-15T02:10:58.636Z,6.24
2023-04-15T02:13:26.466Z,6.20
2023-04-15T02:15:56.555Z,6.23
2023-04-15T02:18:24.457Z,6.23
2023-04-15T02:20:53.197Z,6.20
2023-04-15T02:23:21.271Z,6.21
2023-04-15T02:25:53.598Z,6.19
2023-04-15T02:28:22.834Z,6.17
2023-04-15T02:30:53.728Z,6.13
2023-04-15T02:33:22.861Z,6.07
2023-04-15T02:35:51.122Z,6.09
2023-04-15T02:38:19.343Z,6.07
2023-04-15T02:40:49.822Z,6.06
2023-04-15T02:43:18.781Z,6.09
2023-04-15T02:45:47.483Z,6.10
2023-04-15T02:48:18.135Z,6.14
2023-04-15T02:50:48.136Z,6.16
2023-04-15T02:53:17.818Z,6.14
2023-04-15T02:55:46.400Z,6.14
2023-04-15T02:58:14.301Z,6.17
2023-04-15T03:00:42.463Z,6.20
2023-04-15T03:03:11.015Z,6.21
2023-04-15T03:05:39.672Z,6.19
2023-04-15T03:08:07.928Z,6.10
2023-04-15T03:10:35.789Z,6.05
2023-04-15T03:13:03.642Z,6.07
2023-04-15T03:15:34.015Z,6.03
2023-04-15T03:18:02.678Z,5.98
2023-04-15T03:20:30.974Z,5.89
2023-04-15T03:22:58.851Z,5.88
2023-04-15T03:25:27.421Z,5.86
2023-04-15T03:27:55.442Z,5.86
2023-04-15T03:30:23.343Z,5.82
2023-04-15T03:32:51.849Z,5.75
2023-04-15T03:35:19.899Z,5.68
2023-04-15T03:37:49.201Z,5.63
2023-04-15T03:40:17.389Z,5.55
2023-04-15T03:42:45.083Z,5.50
2023-04-15T03:45:12.953Z,5.45
2023-04-15T03:47:41.152Z,5.42
2023-04-15T03:50:09.371Z,5.40
2023-04-15T03:52:37.380Z,5.40
2023-04-15T03:55:05.518Z,5.34
2023-04-15T03:57:38.164Z,5.33
2023-04-15T04:00:08.094Z,5.26
2023-04-15T04:02:39.773Z,5.23
2023-04-15T04:05:08.374Z,5.21
2023-04-15T04:07:36.668Z,5.21
2023-04-15T04:10:04.603Z,5.23
2023-04-15T04:12:32.452Z,5.24
2023-04-15T04:15:00.511Z,5.26
2023-04-15T04:17:28.399Z,5.33
2023-04-15T04:19:56.287Z,5.30
2023-04-15T04:22:24.828Z,5.34
2023-04-15T04:24:52.897Z,5.38
2023-04-15T04:27:20.871Z,5.44
2023-04-15T04:29:50.075Z,5.51
2023-04-15T04:32:18.067Z,5.58
2023-04-15T04:34:45.860Z,5.62
2023-04-15T04:37:13.757Z,5.61
2023-04-15T04:39:41.901Z,5.62
2023-04-15T04:42:09.736Z,5.61
2023-04-15T04:44:37.872Z,5.55
2023-04-15T04:47:07.665Z,5.51
2023-04-15T04:49:35.696Z,5.45
2023-04-15T04:52:03.628Z,5.38
2023-04-15T04:54:31.863Z,5.34
2023-04-15T04:57:00.368Z,5.26
2023-04-15T04:59:28.498Z,5.16
2023-04-15T05:01:56.788Z,5.09
2023-04-15T05:04:24.697Z,5.03
2023-04-15T05:06:52.425Z,5.00
2023-04-15T05:09:20.552Z,4.99
2023-04-15T05:11:48.350Z,4.97
2023-04-15T05:14:16.677Z,4.94
2023-04-15T05:16:44.504Z,4.99
2023-04-15T05:19:12.395Z,5.00
2023-04-15T05:21:40.715Z,5.00
2023-04-15T05:24:08.875Z,5.07
2023-04-15T05:26:37.480Z,5.13
2023-04-15T05:29:05.351Z,5.16
2023-04-15T05:31:33.452Z,5.20
2023-04-15T05:34:01.882Z,5.21
2023-04-15T05:36:29.654Z,5.34
2023-04-15T05:38:57.438Z,5.50
2023-04-15T05:41:25.427Z,5.63
2023-04-15T05:43:53.235Z,5.72
2023-04-15T05:46:21.767Z,5.83
2023-04-15T05:48:49.950Z,6.05
2023-04-15T05:51:18.176Z,6.13
2023-04-15T05:53:46.366Z,6.19
2023-04-15T05:56:14.419Z,6.26
2023-04-15T05:58:42.430Z,6.29
2023-04-15T06:01:10.736Z,6.31
2023-04-15T06:03:39.549Z,6.36
2023-04-15T06:06:07.984Z,6.41
2023-04-15T06:08:35.770Z,6.42
2023-04-15T06:11:03.798Z,6.41
2023-04-15T06:13:31.914Z,6.45
2023-04-15T06:16:00.043Z,6.45
2023-04-15T06:18:27.764Z,6.55
2023-04-15T06:20:55.690Z,6.67
2023-04-15T06:23:24.532Z,6.81
2023-04-15T06:25:53.823Z,6.79
2023-04-15T06:28:21.725Z,6.99
2023-04-15T06:30:49.602Z,7.13
2023-04-15T06:33:17.810Z,7.24
2023-04-15T06:35:45.865Z,7.46
2023-04-15T06:38:14.775Z,7.64
2023-04-15T06:40:43.159Z,7.78
2023-04-15T06:43:11.477Z,7.92
2023-04-15T06:45:39.796Z,8.03
2023-04-15T06:48:09.750Z,8.24
2023-04-15T06:50:41.919Z,8.30
2023-04-15T06:53:10.064Z,8.50
2023-04-15T06:55:38.314Z,8.63
2023-04-15T06:58:06.153Z,8.81
2023-04-15T07:00:34.599Z,8.95
2023-04-15T07:03:03.994Z,8.85
2023-04-15T07:05:32.684Z,8.91
2023-04-15T07:08:01.278Z,9.02
2023-04-15T07:10:29.246Z,9.12
2023-04-15T07:12:57.630Z,9.16
2023-04-15T07:15:25.572Z,9.26
2023-04-15T07:17:53.952Z,9.46
2023-04-15T07:20:25.939Z,9.74
2023-04-15T07:22:56.887Z,9.98
2023-04-15T07:25:24.840Z,10.31
2023-04-15T07:27:54.198Z,10.53
2023-04-15T07:30:21.936Z,10.69
2023-04-15T07:32:49.896Z,11.00
2023-04-15T07:35:21.566Z,11.16
2023-04-15T07:37:49.586Z,11.24
2023-04-15T07:40:17.472Z,11.34
2023-04-15T07:42:45.516Z,11.39
2023-04-15T07:45:13.268Z,11.41
2023-04-15T07:47:42.207Z,11.51
2023-04-15T07:50:14.643Z,11.62
2023-04-15T07:52:43.110Z,11.68
2023-04-15T07:55:11.589Z,11.81
2023-04-15T07:57:39.655Z,11.65
2023-04-15T08:00:08.264Z,11.64
2023-04-15T08:02:43.597Z,11.55
2023-04-15T08:05:11.852Z,11.61
2023-04-15T08:07:41.177Z,11.90
2023-04-15T08:10:09.790Z,11.97
2023-04-15T08:12:37.731Z,12.09
2023-04-15T08:15:05.984Z,12.29
2023-04-15T08:17:34.429Z,12.22
2023-04-15T08:20:02.896Z,12.19
2023-04-15T08:22:31.230Z,12.16
2023-04-15T08:24:59.798Z,12.06
2023-04-15T08:27:27.662Z,12.05
2023-04-15T08:29:55.827Z,12.12
2023-04-15T08:32:26.820Z,12.19
2023-04-15T08:34:55.081Z,12.22
2023-04-15T08:37:23.254Z,12.27
2023-04-15T08:39:51.075Z,12.19
2023-04-15T08:42:28.587Z,12.45
2023-04-15T08:44:57.006Z,12.54
2023-04-15T08:47:31.863Z,12.68
2023-04-15T08:50:04.629Z,12.78
2023-04-15T08:52:33.070Z,12.68
2023-04-15T08:55:03.221Z,12.98
2023-04-15T08:57:32.919Z,13.09
2023-04-15T09:00:05.611Z,13.19
2023-04-15T09:02:33.998Z,13.30
2023-04-15T09:05:06.678Z,13.23
2023-04-15T09:07:38.088Z,13.30
2023-04-15T09:10:06.814Z,13.36
2023-04-15T09:12:37.686Z,13.60
2023-04-15T09:15:05.965Z,13.59
2023-04-15T09:17:34.987Z,13.44
2023-04-15T09:20:11.118Z,13.64
2023-04-15T09:22:40.254Z,13.77
2023-04-15T09:25:23.258Z,14.02
2023-04-15T09:27:52.927Z,14.19
2023-04-15T09:30:20.923Z,14.65
2023-04-15T09:32:57.302Z,14.80
2023-04-15T09:35:27.760Z,14.93
2023-04-15T09:38:07.519Z,14.76
2023-04-15T09:40:43.167Z,14.66
2023-04-15T09:43:14.718Z,14.63
2023-04-15T09:45:53.037Z,14.66
2023-04-15T09:48:27.501Z,14.75
2023-04-15T09:51:00.691Z,14.60
2023-04-15T09:53:31.243Z,15.04
2023-04-15T09:56:08.147Z,15.44
2023-04-15T09:58:38.981Z,15.92
2023-04-15T10:01:10.020Z,16.45
2023-04-15T10:03:38.292Z,16.86
2023-04-15T10:06:06.458Z,16.59
2023-04-15T10:08:35.562Z,16.44
2023-04-15T10:11:05.434Z,16.23
2023-04-15T10:13:35.355Z,16.25
2023-04-15T10:16:15.150Z,16.62
2023-04-15T10:18:51.925Z,16.85
2023-04-15T10:21:20.487Z,17.06
2023-04-15T10:23:48.640Z,17.31
2023-04-15T10:26:17.831Z,17.37
2023-04-15T10:28:49.418Z,17.68
2023-04-15T10:31:20.461Z,17.77
2023-04-15T10:33:49.744Z,17.98
2023-04-15T10:36:19.651Z,18.33
2023-04-15T10:38:47.561Z,18.23
2023-04-15T10:41:34.584Z,17.46
2023-04-15T10:44:08.183Z,16.54
2023-04-15T10:46:38.815Z,16.27
2023-04-15T10:49:15.372Z,16.40
2023-04-15T10:51:45.704Z,16.61
2023-04-15T10:54:24.709Z,16.73
2023-04-15T10:57:14.143Z,16.44
2023-04-15T11:00:09.380Z,16.54
2023-04-15T11:02:41.399Z,16.65
2023-04-15T11:05:10.829Z,16.78
2023-04-15T11:07:49.648Z,16.75
2023-04-15T11:10:26.634Z,16.45
2023-04-15T11:12:58.987Z,16.25
2023-04-15T11:15:43.257Z,16.13
2023-04-15T11:18:28.270Z,15.85
2023-04-15T11:21:04.477Z,15.45
2023-04-15T11:23:44.463Z,15.49
2023-04-15T11:26:12.826Z,15.42
2023-04-15T11:28:43.392Z,15.14
2023-04-15T11:31:16.756Z,15.39
2023-04-15T11:34:03.078Z,15.30
2023-04-15T11:36:32.460Z,15.11
2023-04-15T11:39:01.506Z,15.03
2023-04-15T11:41:29.744Z,15.38
2023-04-15T11:43:57.698Z,15.49
2023-04-15T11:46:33.871Z,15.79
2023-04-15T11:49:02.966Z,16.02
2023-04-15T11:51:34.517Z,15.69
2023-04-15T11:54:02.942Z,15.32
2023-04-15T11:56:32.146Z,15.28
2023-04-15T11:59:00.870Z,15.25
2023-04-15T12:01:37.323Z,15.36
2023-04-15T12:04:25.431Z,15.52
2023-04-15T12:06:54.338Z,15.65
2023-04-15T12:09:22.260Z,15.81
2023-04-15T12:11:53.133Z,15.82
2023-04-15T12:14:33.580Z,16.02
2023-04-15T12:17:04.957Z,16.10
2023-04-15T12:19:37.871Z,16.02
2023-04-15T12:22:17.615Z,15.89
2023-04-15T12:24:48.282Z,15.96
2023-04-15T12:27:17.829Z,15.89
2023-04-15T12:29:45.860Z,15.97
2023-04-15T12:32:15.677Z,16.00
2023-04-15T12:34:53.246Z,16.24
2023-04-15T12:37:22.058Z,16.52
2023-04-15T12:39:50.672Z,16.50
2023-04-15T12:42:19.215Z,16.31
2023-04-15T12:44:47.899Z,16.31
2023-04-15T12:47:16.308Z,16.41
2023-04-15T12:49:44.254Z,16.20
2023-04-15T12:52:11.987Z,16.30
2023-04-15T12:54:41.221Z,16.78
2023-04-15T12:57:09.114Z,17.36
2023-04-15T12:59:37.691Z,16.93
2023-04-15T13:02:05.795Z,16.52
2023-04-15T13:04:33.794Z,16.30
2023-04-15T13:07:03.130Z,16.82
2023-04-15T13:09:32.162Z,17.15
2023-04-15T13:12:00.788Z,16.41
2023-04-15T13:14:28.894Z,15.99
2023-04-15T13:16:57.201Z,16.90
2023-04-15T13:19:25.964Z,17.23
2023-04-15T13:21:53.928Z,17.44
2023-04-15T13:24:24.531Z,17.30
2023-04-15T13:26:53.543Z,16.80
2023-04-15T13:29:22.402Z,16.57
2023-04-15T13:31:50.738Z,15.85
2023-04-15T13:34:18.554Z,16.72
2023-04-15T13:36:47.157Z,17.63
2023-04-15T13:39:15.048Z,18.22
2023-04-15T13:41:43.063Z,18.67
2023-04-15T13:44:12.435Z,17.71
2023-04-15T13:46:42.279Z,17.31
2023-04-15T13:49:10.121Z,17.34
2023-04-15T13:51:38.064Z,17.57
2023-04-15T13:54:06.395Z,17.13
2023-04-15T13:56:34.664Z,16.79
2023-04-15T13:59:03.796Z,16.80
2023-04-15T14:01:32.567Z,16.61
2023-04-15T14:04:01.155Z,16.67
2023-04-15T14:06:31.881Z,16.67
2023-04-15T14:08:59.984Z,16.42
2023-04-15T14:11:27.816Z,16.09
2023-04-15T14:13:55.584Z,16.02
2023-04-15T14:16:23.843Z,16.34
2023-04-15T14:18:51.869Z,16.50
2023-04-15T14:21:19.632Z,16.50
2023-04-15T14:23:47.490Z,16.47
2023-04-15T14:26:15.466Z,16.37
2023-04-15T14:28:45.067Z,16.14
2023-04-15T14:31:13.057Z,15.63
2023-04-15T14:33:41.143Z,15.78
2023-04-15T14:36:10.581Z,15.82
2023-04-15T14:38:40.071Z,15.87
2023-04-15T14:41:10.090Z,15.69
2023-04-15T14:43:39.354Z,15.35
2023-04-15T14:46:08.703Z,15.18
2023-04-15T14:48:36.746Z,15.07
2023-04-15T14:51:05.052Z,15.32
2023-04-15T14:53:33.415Z,15.41
2023-04-15T14:56:01.464Z,15.38
2023-04-15T14:58:29.831Z,15.24
2023-04-15T15:00:58.029Z,15.17
2023-04-15T15:03:26.052Z,15.18
2023-04-15T15:05:54.293Z,14.97
2023-04-15T15:08:22.151Z,14.83
2023-04-15T15:10:50.202Z,14.87
2023-04-15T15:13:19.822Z,14.83
2023-04-15T15:15:49.782Z,14.88
2023-04-15T15:18:19.650Z,15.07
2023-04-15T15:20:48.205Z,15.04
2023-04-15T15:23:16.196Z,15.08
2023-04-15T15:25:45.956Z,14.88
2023-04-15T15:28:13.811Z,14.83
2023-04-15T15:30:41.721Z,14.72
2023-04-15T15:33:11.304Z,14.65
2023-04-15T15:35:39.431Z,14.66
2023-04-15T15:38:07.250Z,14.73
2023-04-15T15:40:35.051Z,14.90
2023-04-15T15:43:03.179Z,15.07
2023-04-15T15:45:32.190Z,15.17
2023-04-15T15:48:01.716Z,15.28
2023-04-15T15:50:30.228Z,15.12
2023-04-15T15:52:58.999Z,15.15
2023-04-15T15:55:27.430Z,15.08
2023-04-15T15:57:55.624Z,15.07
2023-04-15T16:00:23.574Z,14.97
2023-04-15T16:03:05.273Z,14.73
2023-04-15T16:05:35.526Z,14.87
2023-04-15T16:08:04.212Z,14.90
2023-04-15T16:10:32.559Z,14.84
2023-04-15T16:13:01.047Z,14.76
2023-04-15T16:15:29.142Z,14.60
2023-04-15T16:17:57.035Z,14.47
2023-04-15T16:20:25.612Z,14.30
2023-04-15T16:22:56.365Z,14.26
2023-04-15T16:25:24.778Z,14.17
2023-04-15T16:28:03.135Z,14.12
2023-04-15T16:30:41.792Z,14.04
2023-04-15T16:33:10.783Z,14.02
2023-04-15T16:35:39.324Z,13.95
2023-04-15T16:38:07.637Z,13.90
2023-04-15T16:40:36.840Z,13.97
2023-04-15T16:43:07.637Z,14.02
2023-04-15T16:45:35.770Z,14.09
2023-04-15T16:48:04.230Z,13.98
2023-04-15T16:50:32.561Z,13.90
2023-04-15T16:53:01.588Z,13.73
2023-04-15T16:55:29.780Z,13.63
2023-04-15T16:58:03.296Z,13.50
2023-04-15T17:00:33.093Z,13.54
2023-04-15T17:03:05.275Z,13.50
2023-04-15T17:05:33.757Z,13.27
2023-04-15T17:08:01.884Z,13.29
2023-04-15T17:10:30.734Z,13.23
2023-04-15T17:12:59.444Z,13.15
2023-04-15T17:15:28.069Z,12.92
2023-04-15T17:17:56.154Z,12.84
2023-04-15T17:20:24.444Z,12.63
2023-04-15T17:22:52.559Z,12.77
2023-04-15T17:25:20.965Z,12.75
2023-04-15T17:27:49.041Z,12.60
2023-04-15T17:30:16.955Z,12.63
2023-04-15T17:32:44.932Z,12.55
2023-04-15T17:35:12.977Z,12.47
2023-04-15T17:37:40.723Z,12.36
2023-04-15T17:40:09.167Z,12.33
2023-04-15T17:42:37.014Z,12.40
2023-04-15T17:45:05.158Z,12.37
2023-04-15T17:47:33.068Z,12.33
2023-04-15T17:50:01.173Z,12.22
2023-04-15T17:52:29.085Z,12.27
2023-04-15T17:54:56.898Z,12.16
2023-04-15T17:57:25.462Z,12.14
2023-04-15T17:59:53.618Z,12.13
2023-04-15T18:02:22.869Z,12.12
2023-04-15T18:04:51.044Z,12.16
2023-04-15T18:07:18.947Z,12.09
2023-04-15T18:09:46.982Z,11.93
2023-04-15T18:12:14.798Z,11.89
2023-04-15T18:14:42.525Z,11.69
2023-04-15T18:17:11.472Z,11.66
2023-04-15T18:19:39.242Z,11.55
2023-04-15T18:22:08.293Z,11.55
2023-04-15T18:24:36.198Z,11.48
2023-04-15T18:27:04.280Z,11.51
2023-04-15T18:29:32.156Z,11.47
2023-04-15T18:32:00.684Z,11.39
2023-04-15T18:34:29.185Z,11.24
2023-04-15T18:36:58.360Z,11.20
2023-04-15T18:39:27.606Z,11.24
2023-04-15T18:41:56.187Z,11.21
2023-04-15T18:44:24.507Z,11.14
2023-04-15T18:46:52.390Z,11.11
2023-04-15T18:49:20.390Z,11.11
2023-04-15T18:51:48.169Z,11.10
2023-04-15T18:54:16.686Z,11.11
2023-04-15T18:56:44.726Z,11.08
2023-04-15T18:59:28.840Z,10.97
2023-04-15T19:01:58.703Z,10.93
2023-04-15T19:04:29.443Z,10.93
2023-04-15T19:06:59.363Z,10.93
2023-04-15T19:09:28.530Z,10.93
2023-04-15T19:11:57.088Z,10.79
2023-04-15T19:14:25.020Z,10.77
2023-04-15T19:16:52.967Z,10.65
2023-04-15T19:19:20.909Z,10.68
2023-04-15T19:21:52.711Z,10.63
2023-04-15T19:24:20.960Z,10.63
2023-04-15T19:26:51.129Z,10.69
2023-04-15T19:29:19.377Z,10.68
2023-04-15T19:31:47.160Z,10.70
2023-04-15T19:34:17.103Z,10.56
2023-04-15T19:36:45.666Z,10.51
2023-04-15T19:39:14.695Z,10.49
2023-04-15T19:41:44.355Z,10.41
2023-04-15T19:44:13.195Z,10.45
2023-04-15T19:46:45.082Z,10.42
2023-04-15T19:49:13.685Z,10.44
2023-04-15T19:51:42.429Z,10.46
2023-04-15T19:54:10.440Z,10.48
2023-04-15T19:56:38.296Z,10.44
2023-04-15T19:59:06.554Z,10.45
2023-04-15T20:01:35.125Z,10.41
2023-04-15T20:04:04.119Z,10.37
2023-04-15T20:06:32.675Z,10.29
2023-04-15T20:09:01.116Z,10.28
2023-04-15T20:12:05.952Z,10.21
2023-04-15T20:14:21.630Z,10.10
2023-04-15T20:16:49.355Z,9.94
2023-04-15T20:19:17.240Z,9.90
2023-04-15T20:21:45.657Z,9.91
2023-04-15T20:24:13.419Z,9.90
2023-04-15T20:26:41.309Z,9.91
2023-04-15T20:29:09.177Z,9.97
2023-04-15T20:31:37.489Z,9.91
2023-04-15T20:34:05.338Z,9.90
2023-04-15T20:36:33.722Z,9.95
2023-04-15T20:39:01.836Z,9.93
2023-04-15T20:41:29.629Z,9.80
2023-04-15T20:43:57.447Z,9.70
2023-04-15T20:46:27.365Z,9.66
2023-04-15T20:48:56.240Z,9.70
2023-04-15T20:51:24.222Z,9.72
2023-04-15T20:53:52.401Z,9.60
2023-04-15T20:56:20.459Z,9.62
2023-04-15T20:58:48.239Z,9.62
2023-04-15T21:01:16.338Z,9.63
2023-04-15T21:03:44.162Z,9.57
2023-04-15T21:06:12.084Z,9.56
2023-04-15T21:08:40.011Z,9.56
2023-04-15T21:11:08.241Z,9.54
2023-04-15T21:13:36.146Z,9.53
2023-04-15T21:16:04.408Z,9.43
2023-04-15T21:18:32.496Z,9.40
2023-04-15T21:21:01.921Z,9.33
2023-04-15T21:23:31.017Z,9.22
2023-04-15T21:25:59.784Z,9.12
2023-04-15T21:28:30.963Z,8.97
2023-04-15T21:30:59.464Z,9.00
2023-04-15T21:33:27.487Z,8.95
2023-04-15T21:35:55.494Z,9.01
2023-04-15T21:38:23.631Z,9.00
2023-04-15T21:40:51.826Z,8.92
2023-04-15T21:43:21.656Z,8.84
2023-04-15T21:46:21.076Z,8.80
2023-04-15T21:48:37.668Z,8.81
2023-04-15T21:51:06.118Z,8.80
2023-04-15T21:53:33.931Z,8.78
2023-04-15T21:56:02.599Z,8.75
2023-04-15T21:58:30.714Z,8.73
2023-04-15T22:01:00.821Z,8.71
2023-04-15T22:03:34.546Z,8.78
2023-04-15T22:06:05.227Z,8.78
2023-04-15T22:08:41.702Z,8.80
2023-04-15T22:11:23.180Z,8.84
2023-04-15T22:13:51.120Z,8.80
2023-04-15T22:16:19.015Z,8.80
2023-04-15T22:18:46.928Z,8.84
2023-04-15T22:21:15.053Z,8.81
2023-04-15T22:23:45.862Z,8.78
2023-04-15T22:26:13.684Z,8.80
2023-04-15T22:28:41.925Z,8.84
2023-04-15T22:31:10.036Z,8.84
2023-04-15T22:33:39.025Z,8.85
2023-04-15T22:36:07.096Z,8.88
2023-04-15T22:38:34.878Z,8.85
2023-04-15T22:41:03.037Z,8.88
2023-04-15T22:43:31.131Z,8.91
2023-04-15T22:46:00.544Z,8.89
2023-04-15T22:48:28.511Z,8.83
2023-04-15T22:50:56.854Z,8.89
2023-04-15T22:53:26.611Z,8.91
2023-04-15T22:55:54.676Z,8.89
2023-04-15T22:58:22.801Z,8.92
2023-04-15T23:00:50.918Z,8.92
2023-04-15T23:03:18.952Z,8.94
2023-04-15T23:05:46.900Z,9.00
2023-04-15T23:08:14.800Z,8.98
2023-04-15T23:10:44.908Z,8.92
2023-04-15T23:13:12.828Z,8.97
2023-04-15T23:15:40.648Z,8.95
2023-04-15T23:18:08.525Z,8.89
2023-04-15T23:20:36.485Z,8.92
2023-04-15T23:23:04.210Z,8.94
2023-04-15T23:25:34.150Z,8.89
2023-04-15T23:28:02.277Z,8.95
2023-04-15T23:30:30.387Z,8.87
2023-04-15T23:32:58.520Z,8.75
2023-04-15T23:35:27.460Z,8.84
2023-04-15T23:37:55.388Z,8.84
2023-04-15T23:40:23.309Z,8.85
2023-04-15T23:42:51.938Z,8.80
2023-04-15T23:45:19.898Z,8.78
2023-04-15T23:47:47.826Z,8.80
2023-04-15T23:50:15.928Z,8.85
2023-04-15T23:52:43.662Z,8.80
2023-04-15T23:55:11.739Z,8.81
2023-04-15T23:57:40.663Z,8.83
